Gairloch, United Kingdom
Current Conditions -  °F | °C
As of 9:20 PM on Sunday 23 Nov 2014 (Local Time) from EGPO Reporting Station
Scattered Clouds Scattered Clouds  
Wind Chill: 40°   Ceiling: Unl
Heat Index: 46°   Visibility: 5mi
Dew Point: 41°   Wind: 15mph
Humidity: 81%   Direction: 260°W
Pressure: 29.94"   Gusts: NA
Location:  57.7°N, 5.73°W
Report Text: EGPO 232120Z AUTO 26013KT 8000 FEW022/// SCT035/// 08/05 Q1014
Loading
Personal Weather Stations






























Interactive Weather Map New forecast layout! Learn more

10-Day Weather Forecast

Advertisements
Track Severe Weather on mobile